Time;durP1;ratioP1;P1;durP2;ratioP2;P2;SDS_P1;SDS_P2;PMS_P1;PMS_P2;Temp;Humidity;BMP_temperature;BMP_pressure;BME280_temperature;BME280_humidity;BME280_pressure;Samples;Min_cycle;Max_cycle;Signal;HPM_P1;HPM_P2
2022/11/01 00:01:05;;;;;;;88.30;34.22;;;12.20;99.90;;;;;;4971049;28;20041;-80
2022/11/01 00:03:30;;;;;;;74.93;31.75;;;12.30;99.90;;;;;;4987187;28;20114;-79
2022/11/01 00:05:56;;;;;;;88.13;33.63;;;12.20;99.90;;;;;;4971835;28;21353;-80
2022/11/01 00:08:22;;;;;;;82.45;32.55;;;12.20;99.90;;;;;;4969734;28;20026;-79
2022/11/01 00:10:47;;;;;;;87.10;33.75;;;12.30;99.90;;;;;;4971032;28;20034;-80
2022/11/01 00:13:13;;;;;;;85.40;34.28;;;12.20;99.90;;;;;;4956209;28;20064;-80
2022/11/01 00:15:39;;;;;;;81.13;34.38;;;12.20;99.90;;;;;;4971619;28;20059;-78
2022/11/01 00:18:04;;;;;;;72.72;31.75;;;12.20;99.90;;;;;;4973821;28;20041;-78
2022/11/01 00:20:31;;;;;;;82.50;34.55;;;12.20;99.90;;;;;;4971815;28;20031;-78
2022/11/01 00:22:57;;;;;;;88.80;35.00;;;12.30;99.90;;;;;;4972755;28;20104;-80
2022/11/01 00:25:22;;;;;;;91.28;36.70;;;12.20;99.90;;;;;;4972154;28;20031;-79
2022/11/01 00:27:48;;;;;;;83.15;35.15;;;12.20;99.90;;;;;;4970494;28;20039;-79
2022/11/01 00:30:13;;;;;;;79.50;33.88;;;12.20;99.90;;;;;;4973752;28;20034;-78
2022/11/01 00:32:40;;;;;;;91.13;34.60;;;12.20;99.90;;;;;;4973327;28;20023;-80
2022/11/01 00:35:05;;;;;;;104.00;36.90;;;12.20;99.90;;;;;;4971062;28;20047;-78
2022/11/01 00:37:31;;;;;;;89.88;36.08;;;12.20;99.90;;;;;;4971419;28;20023;-78
2022/11/01 00:39:57;;;;;;;84.15;35.15;;;12.20;99.90;;;;;;4971092;28;20026;-79
2022/11/01 00:42:22;;;;;;;94.57;37.10;;;12.20;99.90;;;;;;4973930;28;20485;-78
2022/11/01 00:44:48;;;;;;;90.05;35.95;;;12.30;99.90;;;;;;4972984;28;20036;-79
2022/11/01 00:47:14;;;;;;;96.47;38.45;;;12.30;99.90;;;;;;4972946;28;20034;-80
2022/11/01 00:49:39;;;;;;;102.38;38.88;;;12.30;99.90;;;;;;4973271;28;20069;-79
2022/11/01 00:52:05;;;;;;;94.38;37.72;;;12.30;99.90;;;;;;4973291;28;20019;-81
2022/11/01 00:54:30;;;;;;;80.13;33.72;;;12.30;99.90;;;;;;4973161;28;20050;-81
2022/11/01 00:56:57;;;;;;;104.13;37.97;;;12.30;99.90;;;;;;4972382;28;20049;-80
2022/11/01 00:59:22;;;;;;;95.22;37.00;;;12.30;99.90;;;;;;4973036;28;20050;-79
2022/11/01 01:01:48;;;;;;;97.40;36.97;;;12.30;99.90;;;;;;4973164;28;20022;-79
2022/11/01 01:04:13;;;;;;;102.22;39.20;;;12.30;99.90;;;;;;4972142;28;20031;-78
2022/11/01 01:06:39;;;;;;;92.25;39.20;;;12.20;99.90;;;;;;4972102;28;20421;-81
2022/11/01 01:09:05;;;;;;;94.63;37.05;;;12.20;99.90;;;;;;4972654;28;20030;-78
2022/11/01 01:11:30;;;;;;;104.88;38.50;;;12.20;99.90;;;;;;4972630;28;20078;-79
2022/11/01 01:13:56;;;;;;;95.75;40.15;;;12.20;99.90;;;;;;4974187;28;20034;-80
2022/11/01 01:16:22;;;;;;;103.60;40.60;;;12.20;99.90;;;;;;4976940;28;20094;-82
2022/11/01 01:18:47;;;;;;;111.03;40.78;;;12.20;99.90;;;;;;4974109;28;20883;-77
2022/11/01 01:21:14;;;;;;;108.90;39.97;;;12.20;99.90;;;;;;4974417;28;20026;-79
2022/11/01 01:23:40;;;;;;;113.63;42.47;;;12.20;99.90;;;;;;4974692;28;20517;-79
2022/11/01 01:26:09;;;;;;;108.50;41.83;;;12.20;99.90;;;;;;4974867;28;20041;-79
2022/11/01 01:28:35;;;;;;;113.80;42.38;;;12.20;99.90;;;;;;4975751;28;20027;-79
2022/11/01 01:31:08;;;;;;;103.47;40.53;;;12.20;99.90;;;;;;4974869;28;20030;-80
2022/11/01 01:33:34;;;;;;;114.32;42.88;;;12.20;99.90;;;;;;4975650;28;20038;-80
2022/11/01 01:36:01;;;;;;;115.28;44.05;;;12.20;99.90;;;;;;4958394;28;20113;-78
2022/11/01 01:38:27;;;;;;;111.63;42.78;;;12.20;99.90;;;;;;4974202;28;20026;-82
2022/11/01 01:40:52;;;;;;;115.82;47.20;;;12.20;99.90;;;;;;4975569;28;20083;-79
2022/11/01 01:43:18;;;;;;;115.43;42.33;;;12.20;99.90;;;;;;4976087;28;20376;-81
2022/11/01 01:45:44;;;;;;;127.40;47.30;;;12.20;99.90;;;;;;4974837;28;20038;-80
2022/11/01 01:48:21;;;;;;;110.22;45.08;;;12.20;99.90;;;;;;4974233;28;20031;-80
2022/11/01 01:51:01;;;;;;;118.22;46.88;;;12.20;99.90;;;;;;4974482;28;20034;-79
2022/11/01 01:53:31;;;;;;;115.75;44.08;;;12.20;99.90;;;;;;4974043;28;20039;-80
2022/11/01 01:56:03;;;;;;;118.88;45.38;;;12.30;99.90;;;;;;4975372;28;20031;-81
2022/11/01 01:59:01;;;;;;;134.07;46.47;;;12.30;99.90;;;;;;4974305;28;20078;-78
2022/11/01 02:01:27;;;;;;;118.13;44.25;;;12.30;99.90;;;;;;4975458;28;20073;-79
2022/11/01 02:03:53;;;;;;;117.68;44.88;;;12.30;99.90;;;;;;4975379;28;20800;-79
2022/11/01 02:06:21;;;;;;;114.15;45.40;;;12.30;99.90;;;;;;4975359;28;20027;-79
2022/11/01 02:08:51;;;;;;;117.13;44.95;;;12.30;99.90;;;;;;4970362;28;20043;-79
2022/11/01 02:11:19;;;;;;;121.05;44.92;;;12.30;99.90;;;;;;4975181;28;20045;-80
2022/11/01 02:13:44;;;;;;;123.22;45.45;;;12.30;99.90;;;;;;4968111;28;20043;-79
2022/11/01 02:16:37;;;;;;;121.38;45.25;;;12.30;99.90;;;;;;4950442;29;20073;-75
2022/11/01 02:19:36;;;;;;;109.60;45.30;;;12.30;99.90;;;;;;4979287;28;20379;-80
2022/11/01 02:22:07;;;;;;;107.90;45.40;;;12.30;99.90;;;;;;4987245;28;20035;-80
2022/11/01 02:25:03;;;;;;;116.75;47.55;;;12.30;99.90;;;;;;4985737;28;20031;-78
2022/11/01 02:27:52;;;;;;;118.90;43.20;;;12.30;99.90;;;;;;4985789;28;20030;-78
2022/11/01 02:30:20;;;;;;;119.95;45.85;;;12.40;99.90;;;;;;4978723;28;20054;-79
2022/11/01 02:33:12;;;;;;;118.30;45.78;;;12.40;99.90;;;;;;4987237;28;20023;-79
2022/11/01 02:35:51;;;;;;;115.03;45.10;;;12.40;99.90;;;;;;4986472;28;20039;-78
2022/11/01 02:38:25;;;;;;;122.30;46.95;;;12.40;99.90;;;;;;4982178;28;20057;-79
2022/11/01 02:41:32;;;;;;;123.60;44.67;;;12.40;99.90;;;;;;4969534;28;20033;-79
2022/11/01 02:44:02;;;;;;;118.05;44.38;;;12.40;99.90;;;;;;4973322;28;20043;-77
2022/11/01 02:49:21;;;;;;;113.40;44.40;;;12.50;99.90;;;;;;4986145;28;20041;-78
2022/11/01 02:51:48;;;;;;;110.07;45.22;;;12.50;99.90;;;;;;4986541;28;20030;-78
2022/11/01 02:54:20;;;;;;;114.07;46.72;;;12.50;99.90;;;;;;4969114;28;20043;-78
2022/11/01 02:56:47;;;;;;;110.55;44.58;;;12.50;99.90;;;;;;4986518;28;20027;-80
2022/11/01 02:59:22;;;;;;;120.38;43.83;;;12.50;99.90;;;;;;4968953;28;20062;-77
2022/11/01 03:02:20;;;;;;;103.65;43.40;;;12.50;99.90;;;;;;4986939;28;20034;-77
2022/11/01 03:04:47;;;;;;;110.53;42.83;;;12.50;99.90;;;;;;4969083;28;20086;-75
2022/11/01 03:07:14;;;;;;;110.63;44.60;;;12.60;99.90;;;;;;4985071;28;20027;-76
2022/11/01 03:09:40;;;;;;;96.18;43.10;;;12.60;99.90;;;;;;4969503;28;20126;-76
2022/11/01 03:12:14;;;;;;;108.53;41.83;;;12.50;99.90;;;;;;4968847;28;20059;-78
2022/11/01 03:14:52;;;;;;;109.75;41.72;;;12.60;99.90;;;;;;4986422;28;20053;-79
2022/11/01 03:17:33;;;;;;;112.55;45.22;;;12.50;99.90;;;;;;4986295;28;20030;-77
2022/11/01 03:20:07;;;;;;;114.18;43.60;;;12.50;99.90;;;;;;4986617;28;20031;-78
2022/11/01 03:22:43;;;;;;;106.63;43.30;;;12.50;99.90;;;;;;4986366;28;20034;-78
2022/11/01 03:25:41;;;;;;;116.82;44.53;;;12.50;99.90;;;;;;4986111;28;20039;-76
2022/11/01 03:28:22;;;;;;;100.43;43.15;;;12.60;99.90;;;;;;4968660;28;20034;-78
2022/11/01 03:30:54;;;;;;;100.75;43.08;;;12.60;99.90;;;;;;4975120;28;20039;-77
2022/11/01 03:33:21;;;;;;;106.22;43.67;;;12.60;99.90;;;;;;4985619;28;20046;-77
2022/11/01 03:35:51;;;;;;;96.15;40.22;;;12.60;99.90;;;;;;4985394;28;20027;-76
2022/11/01 03:38:20;;;;;;;101.90;42.55;;;12.60;99.90;;;;;;4984691;28;20037;-78
2022/11/01 03:40:54;;;;;;;98.57;41.75;;;12.60;99.90;;;;;;4985574;28;20089;-78
2022/11/01 03:43:24;;;;;;;89.10;39.55;;;12.70;99.90;;;;;;4968930;28;20376;-76
2022/11/01 03:45:49;;;;;;;95.95;39.58;;;12.60;99.90;;;;;;4985956;28;20041;-77
2022/11/01 03:48:15;;;;;;;105.20;42.83;;;12.70;99.90;;;;;;4985662;28;20061;-78
2022/11/01 03:50:47;;;;;;;102.63;41.38;;;12.60;99.90;;;;;;4985909;28;20039;-76
2022/11/01 03:53:13;;;;;;;94.93;41.83;;;12.70;99.90;;;;;;4968117;28;20031;-76
2022/11/01 03:55:38;;;;;;;98.45;42.45;;;12.70;99.90;;;;;;4968312;28;20034;-76
2022/11/01 03:58:04;;;;;;;101.05;41.75;;;12.70;99.90;;;;;;4985500;28;20051;-77
2022/11/01 04:00:32;;;;;;;96.65;39.55;;;12.70;99.90;;;;;;4986018;28;20026;-77
2022/11/01 04:02:59;;;;;;;96.93;40.65;;;12.70;99.90;;;;;;4986003;28;20387;-77
2022/11/01 04:05:27;;;;;;;103.18;41.22;;;12.70;99.90;;;;;;4984656;28;20085;-76
2022/11/01 04:07:53;;;;;;;94.25;41.67;;;12.70;99.90;;;;;;4985509;28;20027;-70
2022/11/01 04:10:20;;;;;;;96.07;38.97;;;12.70;99.90;;;;;;4985707;28;20027;-70
2022/11/01 04:12:47;;;;;;;98.70;38.72;;;12.70;99.90;;;;;;4985538;28;20034;-76
2022/11/01 04:21:24;;;;;;;82.45;36.42;;;12.80;99.90;;;;;;4978769;28;20046;-78
2022/11/01 04:23:50;;;;;;;88.13;38.03;;;12.80;99.90;;;;;;4967941;28;20045;-74
2022/11/01 04:26:18;;;;;;;95.20;39.38;;;12.70;99.90;;;;;;4985325;28;20535;-78
2022/11/01 04:28:55;;;;;;;87.70;39.45;;;12.80;99.90;;;;;;4985098;28;20037;-76
2022/11/01 04:31:35;;;;;;;90.07;38.10;;;12.80;99.90;;;;;;4985443;28;20023;-77
2022/11/01 04:34:03;;;;;;;88.60;38.25;;;12.80;99.90;;;;;;4967408;28;20077;-77
2022/11/01 04:36:29;;;;;;;103.88;41.53;;;12.80;99.90;;;;;;4985228;28;20038;-76
2022/11/01 04:38:56;;;;;;;93.22;39.53;;;12.90;99.90;;;;;;4967594;28;20483;-75
2022/11/01 04:41:27;;;;;;;94.05;38.97;;;12.80;99.90;;;;;;4967839;28;20027;-76
2022/11/01 04:43:56;;;;;;;93.00;38.45;;;12.80;99.90;;;;;;4983946;28;20034;-77
2022/11/01 04:46:23;;;;;;;87.63;38.03;;;12.80;99.90;;;;;;4967836;28;20023;-75
2022/11/01 04:48:49;;;;;;;83.10;36.55;;;12.90;99.90;;;;;;4988626;28;20511;-75
2022/11/01 04:51:14;;;;;;;90.85;38.85;;;12.90;99.90;;;;;;4989021;28;20034;-76
2022/11/01 04:53:40;;;;;;;88.05;36.95;;;12.90;99.90;;;;;;4987793;28;20043;-75
2022/11/01 04:56:09;;;;;;;96.25;37.92;;;12.90;99.90;;;;;;4988682;28;20026;-76
2022/11/01 04:58:35;;;;;;;84.28;36.70;;;12.90;99.90;;;;;;4988339;28;20039;-75
2022/11/01 05:01:07;;;;;;;82.30;34.83;;;12.90;99.90;;;;;;4988968;28;20051;-77
2022/11/01 05:03:34;;;;;;;91.18;36.40;;;12.90;99.90;;;;;;4988129;28;20538;-78
2022/11/01 05:05:59;;;;;;;83.75;36.42;;;12.90;99.90;;;;;;4989030;28;20039;-78
2022/11/01 05:08:26;;;;;;;75.97;34.90;;;13.00;99.90;;;;;;4971454;28;20037;-78
2022/11/01 05:10:53;;;;;;;82.60;35.88;;;12.90;99.90;;;;;;4971285;28;20030;-75
2022/11/01 05:13:19;;;;;;;83.63;36.58;;;12.90;99.90;;;;;;4988529;28;20026;-77
2022/11/01 05:15:45;;;;;;;90.97;34.75;;;13.00;99.90;;;;;;4987295;28;20042;-76
2022/11/01 05:18:10;;;;;;;96.85;36.35;;;13.00;99.90;;;;;;4986528;28;20086;-77
2022/11/01 05:20:36;;;;;;;75.20;35.85;;;13.00;99.90;;;;;;4988510;28;20118;-77
2022/11/01 05:23:03;;;;;;;77.13;33.53;;;13.00;99.90;;;;;;4988161;28;20031;-77
2022/11/01 05:25:30;;;;;;;85.18;34.60;;;13.00;99.90;;;;;;4988268;28;20030;-77
2022/11/01 05:28:06;;;;;;;71.65;33.15;;;13.00;99.90;;;;;;4985573;28;20054;-75
2022/11/01 05:30:36;;;;;;;73.35;33.90;;;13.00;99.90;;;;;;4985612;28;20034;-78
2022/11/01 05:33:03;;;;;;;79.90;34.35;;;13.00;99.90;;;;;;4987309;28;20027;-77
2022/11/01 05:35:29;;;;;;;68.32;32.05;;;13.00;99.90;;;;;;4986278;28;20026;-75
2022/11/01 05:37:55;;;;;;;77.55;33.13;;;13.00;99.90;;;;;;4985232;28;20042;-79
2022/11/01 05:40:21;;;;;;;81.00;33.28;;;13.00;99.90;;;;;;4986460;28;20019;-74
2022/11/01 05:42:47;;;;;;;87.97;33.67;;;13.00;99.90;;;;;;4979057;28;20134;-75
2022/11/01 05:45:13;;;;;;;72.57;32.45;;;13.00;99.90;;;;;;4985679;28;20082;-77
2022/11/01 05:47:39;;;;;;;61.78;30.77;;;13.00;99.90;;;;;;4987872;28;20054;-78
2022/11/01 05:50:10;;;;;;;73.78;31.27;;;13.00;99.90;;;;;;4986784;28;20475;-77
2022/11/01 05:52:36;;;;;;;73.20;30.40;;;12.90;99.90;;;;;;4968453;29;20058;-78
2022/11/01 05:55:02;;;;;;;81.80;31.15;;;12.90;99.90;;;;;;4961370;28;20138;-80
2022/11/01 05:57:28;;;;;;;73.43;33.25;;;13.00;99.90;;;;;;4984182;28;20034;-77
2022/11/01 05:59:53;;;;;;;67.85;32.25;;;13.00;99.90;;;;;;5003204;28;20060;-80
2022/11/01 06:02:19;;;;;;;71.38;31.70;;;13.00;99.90;;;;;;4989361;28;20093;-77
2022/11/01 06:04:44;;;;;;;66.80;32.25;;;13.00;99.90;;;;;;5005104;28;20026;-78
2022/11/01 06:07:10;;;;;;;66.88;31.05;;;13.00;99.90;;;;;;5001045;28;20501;-76
2022/11/01 06:09:36;;;;;;;64.93;29.42;;;13.00;99.90;;;;;;5006173;28;20022;-78
2022/11/01 06:12:02;;;;;;;66.45;31.40;;;13.00;99.90;;;;;;5004887;28;20058;-78
2022/11/01 06:14:27;;;;;;;70.07;30.50;;;13.00;99.90;;;;;;4982513;28;20042;-77
2022/11/01 06:16:53;;;;;;;75.60;31.73;;;13.00;99.90;;;;;;4987217;28;20018;-76
2022/11/01 06:19:19;;;;;;;62.70;30.25;;;13.00;99.90;;;;;;5000146;28;20034;-79
2022/11/01 06:21:44;;;;;;;69.78;29.02;;;13.00;99.90;;;;;;5005002;28;20019;-77
2022/11/01 06:24:10;;;;;;;62.00;29.33;;;13.00;99.90;;;;;;5005631;28;20023;-79
2022/11/01 06:26:36;;;;;;;66.20;30.45;;;13.00;99.90;;;;;;5004171;28;20041;-77
2022/11/01 06:29:03;;;;;;;57.55;29.35;;;13.00;99.90;;;;;;5005273;28;20034;-77
2022/11/01 06:31:29;;;;;;;72.22;30.10;;;13.10;99.90;;;;;;5004823;28;20491;-78
2022/11/01 06:33:55;;;;;;;70.63;29.73;;;13.00;99.90;;;;;;4986991;28;20105;-76
2022/11/01 06:36:21;;;;;;;67.88;28.35;;;13.00;99.90;;;;;;5004317;28;20107;-77
2022/11/01 06:38:47;;;;;;;65.25;28.95;;;13.00;99.90;;;;;;4987662;28;20053;-76
2022/11/01 06:41:13;;;;;;;68.03;28.30;;;13.00;99.90;;;;;;4999600;28;20027;-76
2022/11/01 06:43:39;;;;;;;61.17;26.20;;;13.00;99.90;;;;;;4998522;28;20114;-75
2022/11/01 06:46:05;;;;;;;55.70;26.83;;;13.00;99.90;;;;;;5000204;28;20458;-74
2022/11/01 06:48:30;;;;;;;54.67;24.50;;;13.00;99.90;;;;;;5001757;28;20043;-77
2022/11/01 06:50:56;;;;;;;60.03;24.90;;;13.10;99.90;;;;;;4981428;28;20031;-74
2022/11/01 06:53:23;;;;;;;54.63;24.15;;;13.10;99.90;;;;;;4985540;28;20034;-76
2022/11/01 06:55:48;;;;;;;49.88;22.65;;;13.10;99.90;;;;;;5004257;28;20022;-75
2022/11/01 06:58:14;;;;;;;51.17;22.20;;;13.10;99.90;;;;;;4981355;28;20131;-77
2022/11/01 07:00:40;;;;;;;51.30;22.33;;;13.20;99.90;;;;;;4962829;29;20051;-77
2022/11/01 07:03:07;;;;;;;51.92;23.08;;;13.20;99.90;;;;;;4966247;29;20028;-78
2022/11/01 07:05:35;;;;;;;43.67;20.27;;;13.20;99.90;;;;;;4978340;28;20030;-77
2022/11/01 07:08:01;;;;;;;40.50;19.33;;;13.20;99.90;;;;;;4983812;28;20475;-75
2022/11/01 07:10:27;;;;;;;39.10;19.00;;;13.30;99.90;;;;;;4982379;28;20071;-78
2022/11/01 07:13:00;;;;;;;41.72;19.17;;;13.30;99.90;;;;;;4985210;28;20027;-77
2022/11/01 07:15:27;;;;;;;43.40;20.13;;;13.30;99.90;;;;;;4968248;28;20049;-78
2022/11/01 07:17:57;;;;;;;41.35;19.10;;;13.40;99.90;;;;;;4985542;28;20031;-71
2022/11/01 07:20:23;;;;;;;40.97;19.33;;;13.40;99.90;;;;;;4965809;28;20031;-76
2022/11/01 07:22:59;;;;;;;45.63;19.42;;;13.50;99.90;;;;;;4986214;28;20042;-75
2022/11/01 07:25:25;;;;;;;41.47;18.23;;;13.50;99.90;;;;;;4986578;28;20034;-76
2022/11/01 07:27:51;;;;;;;37.60;17.25;;;13.50;99.90;;;;;;4981618;28;20026;-75
2022/11/01 07:30:16;;;;;;;39.88;17.63;;;13.60;99.90;;;;;;4963521;28;20034;-76
2022/11/01 07:32:42;;;;;;;45.10;17.80;;;13.60;99.90;;;;;;4982337;28;20033;-75
2022/11/01 07:35:08;;;;;;;43.00;18.35;;;13.60;99.90;;;;;;4958597;28;20065;-76
2022/11/01 07:37:34;;;;;;;34.28;18.00;;;13.70;99.90;;;;;;4971564;28;20073;-75
2022/11/01 07:40:02;;;;;;;31.70;17.48;;;13.70;99.90;;;;;;4974206;28;20028;-78
2022/11/01 07:42:27;;;;;;;41.80;18.17;;;13.70;99.90;;;;;;4979916;28;20058;-76
2022/11/01 07:44:53;;;;;;;49.40;17.30;;;13.70;99.90;;;;;;4965543;28;20038;-78
2022/11/01 07:47:19;;;;;;;33.83;15.65;;;13.70;99.90;;;;;;4981222;28;20031;-77
2022/11/01 07:49:44;;;;;;;35.47;15.95;;;13.70;99.90;;;;;;4978324;28;20135;-75
2022/11/01 07:52:10;;;;;;;34.80;14.48;;;13.80;99.90;;;;;;4966393;29;20032;-78
2022/11/01 07:54:36;;;;;;;31.75;15.02;;;13.80;99.90;;;;;;4966289;29;20043;-78
2022/11/01 07:57:01;;;;;;;28.13;14.27;;;13.80;99.90;;;;;;4951882;28;20039;-76
2022/11/01 07:59:27;;;;;;;33.17;14.02;;;13.80;99.90;;;;;;4985224;28;20079;-79
2022/11/01 08:01:52;;;;;;;32.47;13.65;;;13.80;99.90;;;;;;4985709;28;20053;-77
2022/11/01 08:04:18;;;;;;;28.38;12.32;;;13.80;99.90;;;;;;4985464;28;20034;-77
2022/11/01 08:06:44;;;;;;;23.42;12.45;;;13.90;99.90;;;;;;4984509;28;20055;-78
2022/11/01 08:09:09;;;;;;;28.52;11.57;;;13.90;99.90;;;;;;4973625;28;20035;-76
2022/11/01 08:11:35;;;;;;;20.98;9.98;;;13.90;99.90;;;;;;4948814;29;20027;-73
2022/11/01 08:14:00;;;;;;;20.83;9.77;;;14.00;99.90;;;;;;4966466;28;20046;-80
2022/11/01 08:16:26;;;;;;;23.50;8.82;;;14.00;99.90;;;;;;4981554;28;20054;-74
2022/11/01 08:18:52;;;;;;;24.90;9.57;;;14.10;99.90;;;;;;4984633;28;20041;-77
2022/11/01 08:21:18;;;;;;;20.27;9.20;;;14.20;99.90;;;;;;4985113;28;20041;-79
2022/11/01 08:23:44;;;;;;;17.98;8.30;;;14.20;99.90;;;;;;4982415;28;20039;-79
2022/11/01 08:26:11;;;;;;;19.08;8.70;;;14.30;99.90;;;;;;4982019;28;20030;-75
2022/11/01 08:28:37;;;;;;;30.80;8.85;;;14.30;99.90;;;;;;4976586;28;20023;-77
2022/11/01 08:31:08;;;;;;;14.88;6.40;;;14.40;99.90;;;;;;4948298;28;20425;-76
2022/11/01 08:33:33;;;;;;;14.15;6.43;;;14.40;99.90;;;;;;4984646;28;20038;-72
2022/11/01 08:35:59;;;;;;;14.32;5.15;;;14.60;99.90;;;;;;4983773;28;20038;-78
2022/11/01 08:38:26;;;;;;;10.07;4.15;;;14.70;99.90;;;;;;4981409;28;20035;-79
2022/11/01 08:40:52;;;;;;;11.35;3.50;;;14.80;99.90;;;;;;4980924;28;20027;-75
2022/11/01 08:43:18;;;;;;;13.23;3.38;;;14.90;99.90;;;;;;4984505;28;20058;-75
2022/11/01 08:45:43;;;;;;;9.80;2.70;;;15.00;99.90;;;;;;4983480;28;20391;-76
2022/11/01 08:48:09;;;;;;;7.43;2.33;;;15.10;99.90;;;;;;4985314;28;20047;-76
2022/11/01 08:50:36;;;;;;;14.05;2.38;;;15.20;99.90;;;;;;4980790;28;20692;-79
2022/11/01 08:53:06;;;;;;;7.05;2.33;;;15.30;99.90;;;;;;4964998;28;20035;-81
2022/11/01 08:55:32;;;;;;;5.22;2.03;;;15.30;99.90;;;;;;4983724;28;20094;-76
2022/11/01 08:57:58;;;;;;;8.23;1.80;;;15.40;99.90;;;;;;4975686;28;20031;-76
2022/11/01 09:00:27;;;;;;;10.05;1.48;;;15.40;99.90;;;;;;4966170;28;20079;-72
2022/11/01 09:02:52;;;;;;;8.35;1.20;;;15.30;99.90;;;;;;4981770;28;20570;-72
2022/11/01 09:05:18;;;;;;;4.35;1.20;;;15.30;99.90;;;;;;4983239;28;20039;-73
2022/11/01 09:07:44;;;;;;;8.55;1.40;;;15.30;99.90;;;;;;4983305;28;20050;-75
2022/11/01 09:10:10;;;;;;;5.40;1.45;;;15.30;99.90;;;;;;4980678;28;20086;-74
2022/11/01 09:12:36;;;;;;;7.32;1.30;;;15.20;99.90;;;;;;4981580;28;20026;-72
2022/11/01 09:15:04;;;;;;;6.03;1.40;;;15.20;99.90;;;;;;4966898;28;20043;-75
2022/11/01 09:17:30;;;;;;;5.95;1.60;;;15.20;99.90;;;;;;4983954;28;20082;-73
2022/11/01 09:19:55;;;;;;;4.28;1.23;;;15.20;99.90;;;;;;4971618;28;20026;-73
2022/11/01 09:22:22;;;;;;;12.30;1.00;;;15.30;99.90;;;;;;4984879;28;20030;-73
2022/11/01 09:24:47;;;;;;;2.45;0.80;;;15.50;99.90;;;;;;4982413;28;20038;-76
2022/11/01 09:27:13;;;;;;;3.05;1.05;;;15.60;99.90;;;;;;4982968;28;20027;-72
2022/11/01 09:29:39;;;;;;;2.58;0.93;;;15.80;99.90;;;;;;4963088;28;20040;-73
2022/11/01 09:32:07;;;;;;;7.95;1.33;;;15.90;99.90;;;;;;4974766;28;20059;-78
2022/11/01 09:34:33;;;;;;;5.80;0.90;;;16.00;99.90;;;;;;4984443;28;20038;-78
2022/11/01 09:36:59;;;;;;;5.13;1.30;;;16.00;99.90;;;;;;4988487;28;20042;-79
2022/11/01 09:39:25;;;;;;;2.50;0.88;;;16.20;99.90;;;;;;4986032;28;20031;-75
2022/11/01 09:41:57;;;;;;;6.53;0.98;;;16.20;99.90;;;;;;4986484;28;20135;-76
2022/11/01 09:44:27;;;;;;;5.40;1.20;;;16.30;99.90;;;;;;4984665;28;20375;-74
2022/11/01 09:47:00;;;;;;;9.43;1.15;;;16.30;99.90;;;;;;4987921;28;20929;-72
2022/11/01 09:49:30;;;;;;;5.35;1.15;;;16.30;99.90;;;;;;4988603;28;20475;-70
2022/11/01 09:51:57;;;;;;;13.52;1.20;;;16.30;99.90;;;;;;4987284;28;20159;-79
2022/11/01 09:54:24;;;;;;;9.27;1.38;;;16.40;99.90;;;;;;4970623;28;20074;-76
2022/11/01 09:57:02;;;;;;;7.13;1.02;;;16.40;99.90;;;;;;4987485;28;20423;-77
2022/11/01 09:59:50;;;;;;;21.92;1.52;;;16.40;99.90;;;;;;4969442;28;20110;-79
2022/11/01 10:02:25;;;;;;;6.82;1.15;;;16.50;99.90;;;;;;4970208;28;20038;-75
2022/11/01 10:05:18;;;;;;;6.00;1.30;;;16.50;99.90;;;;;;4967324;28;20377;-76
2022/11/01 10:07:58;;;;;;;7.72;1.15;;;16.60;99.90;;;;;;4963283;28;20026;-77
2022/11/01 10:10:27;;;;;;;10.25;1.35;;;16.60;99.90;;;;;;4984919;28;20035;-78
2022/11/01 10:13:02;;;;;;;8.02;1.58;;;16.60;99.90;;;;;;4981250;28;20031;-76
2022/11/01 10:15:53;;;;;;;11.68;1.70;;;16.70;99.90;;;;;;4981358;28;20042;-73
2022/11/01 10:18:19;;;;;;;12.23;1.80;;;16.80;99.90;;;;;;4978907;28;20046;-73
2022/11/01 10:20:45;;;;;;;6.13;1.60;;;16.90;99.90;;;;;;4985726;28;20031;-74
2022/11/01 10:23:15;;;;;;;13.50;1.58;;;17.00;99.90;;;;;;4969061;28;20089;-77
2022/11/01 10:25:50;;;;;;;13.93;1.88;;;17.00;99.90;;;;;;4967405;28;20403;-73
2022/11/01 10:28:21;;;;;;;;;;;17.00;99.90;;;;;;4986715;28;20023;-75
2022/11/01 10:30:52;;;;;;;11.68;1.83;;;17.00;99.90;;;;;;4970746;28;19913;-76
2022/11/01 10:33:32;;;;;;;10.77;1.70;;;17.00;99.90;;;;;;4987134;28;20031;-80
2022/11/01 10:36:04;;;;;;;12.52;1.80;;;17.10;99.90;;;;;;4968072;29;20034;-81
2022/11/01 10:38:49;;;;;;;17.13;2.05;;;17.10;99.90;;;;;;4963340;28;20070;-77
2022/11/01 10:41:22;;;;;;;13.80;1.70;;;17.20;99.90;;;;;;4982892;28;20034;-83
2022/11/01 10:44:01;;;;;;;8.25;1.88;;;17.20;99.90;;;;;;4985089;28;20074;-75
2022/11/01 10:46:32;;;;;;;9.60;2.03;;;17.20;99.90;;;;;;4959546;28;20023;-76
2022/11/01 10:49:05;;;;;;;9.02;1.70;;;17.20;99.90;;;;;;4986230;28;20038;-73
2022/11/01 10:51:33;;;;;;;11.57;1.77;;;17.20;99.90;;;;;;4969164;28;20046;-74
2022/11/01 10:54:04;;;;;;;10.45;1.90;;;17.20;99.90;;;;;;4981099;28;20067;-76
2022/11/01 10:56:51;;;;;;;11.73;2.10;;;17.20;99.90;;;;;;4965132;28;20031;-77
2022/11/01 10:59:28;;;;;;;9.45;1.98;;;17.20;99.90;;;;;;4967905;28;20137;-77
2022/11/01 11:01:54;;;;;;;15.73;2.33;;;17.30;99.90;;;;;;4969425;28;20042;-72
2022/11/01 11:04:22;;;;;;;6.75;2.05;;;17.30;99.90;;;;;;4985412;28;20743;-81
2022/11/01 11:06:48;;;;;;;12.82;2.40;;;17.40;99.90;;;;;;4968027;28;20069;-73
2022/11/01 11:09:27;;;;;;;7.22;2.22;;;17.40;99.90;;;;;;4969377;28;20086;-81
2022/11/01 11:11:57;;;;;;;13.02;1.80;;;17.50;99.90;;;;;;4969274;28;20041;-76
2022/11/01 11:14:24;;;;;;;12.75;2.25;;;17.60;99.90;;;;;;4969312;28;20047;-75
2022/11/01 11:16:57;;;;;;;9.52;2.25;;;17.70;99.90;;;;;;4986244;28;20033;-79
2022/11/01 11:19:28;;;;;;;10.45;1.63;;;17.90;99.90;;;;;;4966959;28;20027;-75
2022/11/01 11:21:55;;;;;;;16.90;2.45;;;18.10;99.90;;;;;;4969184;28;20149;-73
2022/11/01 11:24:23;;;;;;;14.00;2.47;;;18.30;99.90;;;;;;4983667;28;20055;-82
2022/11/01 11:26:53;;;;;;;10.52;1.50;;;18.60;99.90;;;;;;4980416;28;20070;-74
2022/11/01 11:29:38;;;;;;;11.85;2.25;;;19.00;99.90;;;;;;4984873;28;20084;-75
2022/11/01 11:32:13;;;;;;;14.48;2.30;;;19.30;99.90;;;;;;4966133;28;20042;-79
2022/11/01 11:34:40;;;;;;;8.98;2.28;;;19.50;99.90;;;;;;4983387;28;20133;-75
2022/11/01 11:37:13;;;;;;;6.70;1.70;;;19.60;99.90;;;;;;4968941;28;20056;-79
2022/11/01 11:39:40;;;;;;;11.15;1.70;;;19.30;99.90;;;;;;4966811;28;20035;-79
2022/11/01 11:42:15;;;;;;;12.88;2.03;;;19.30;99.90;;;;;;4985453;28;20121;-76
2022/11/01 11:44:42;;;;;;;8.85;1.67;;;19.60;99.90;;;;;;4967952;28;20066;-82
2022/11/01 11:47:20;;;;;;;10.05;2.00;;;19.80;99.90;;;;;;4984766;28;20027;-78
2022/11/01 11:49:48;;;;;;;9.80;1.88;;;20.00;99.90;;;;;;4982293;28;20512;-74
2022/11/01 11:52:20;;;;;;;18.42;2.15;;;20.20;99.90;;;;;;4963796;28;20094;-77
2022/11/01 11:54:46;;;;;;;6.88;1.73;;;20.40;99.90;;;;;;4965258;28;20125;-74
2022/11/01 11:57:26;;;;;;;14.20;1.83;;;20.10;99.90;;;;;;4959078;28;20026;-79
2022/11/01 11:59:59;;;;;;;11.90;1.95;;;19.70;99.90;;;;;;4964114;28;20061;-73
2022/11/01 12:02:38;;;;;;;7.65;1.75;;;19.20;99.90;;;;;;4972561;28;20050;-78
2022/11/01 12:05:07;;;;;;;14.63;1.85;;;18.80;99.90;;;;;;4974743;28;20031;-73
2022/11/01 12:07:36;;;;;;;10.93;1.77;;;18.30;99.90;;;;;;4974394;28;20031;-75
2022/11/01 12:10:25;;;;;;;13.38;2.45;;;18.00;99.90;;;;;;4979629;28;20035;-78
2022/11/01 12:12:53;;;;;;;14.05;1.50;;;17.70;99.90;;;;;;4977340;28;20038;-79
2022/11/01 12:15:32;;;;;;;12.13;1.65;;;17.60;99.90;;;;;;4973845;28;20062;-78
2022/11/01 12:18:18;;;;;;;8.95;1.40;;;17.50;99.90;;;;;;4974240;28;20036;-78
2022/11/01 12:20:51;;;;;;;8.00;1.70;;;17.60;99.90;;;;;;4975439;28;20053;-74
2022/11/01 12:23:36;;;;;;;15.68;2.05;;;17.60;99.90;;;;;;4977917;28;20588;-73
2022/11/01 12:26:06;;;;;;;11.75;1.85;;;17.80;99.90;;;;;;4975018;28;20030;-77
2022/11/01 12:28:41;;;;;;;10.27;1.85;;;17.90;99.90;;;;;;4976039;28;20066;-74
2022/11/01 12:31:19;;;;;;;8.40;2.17;;;18.00;99.90;;;;;;4973646;28;20049;-74
2022/11/01 12:33:51;;;;;;;15.10;2.40;;;17.90;99.90;;;;;;4974105;28;20085;-79
2022/11/01 12:36:30;;;;;;;11.30;2.28;;;17.70;99.90;;;;;;4969354;28;20023;-76
2022/11/01 12:39:28;;;;;;;8.48;2.05;;;17.60;99.90;;;;;;4978191;28;20023;-78
2022/11/01 12:42:02;;;;;;;17.75;1.88;;;17.60;99.90;;;;;;4935724;28;20043;-72
2022/11/01 12:44:28;;;;;;;;;;;17.50;99.90;;;;;;4956354;29;20072;-75
2022/11/01 12:47:07;;;;;;;14.98;2.10;;;17.30;99.90;;;;;;4966450;29;19907;-78
2022/11/01 12:49:40;;;;;;;11.20;1.98;;;17.20;99.90;;;;;;4970529;28;20117;-78
2022/11/01 12:52:42;;;;;;;6.78;1.98;;;17.00;99.90;;;;;;4985318;28;20027;-77